sensor_id;sensor_type;location;lat;lon;timestamp;P1;durP1;ratioP1;P2;durP2;ratioP2
58294;SDS011;45705;55.592;37.460;2024-03-06T00:02:05;4.43;;;2.20;;
58294;SDS011;45705;55.592;37.460;2024-03-06T00:04:32;6.10;;;2.22;;
58294;SDS011;45705;55.592;37.460;2024-03-06T00:06:59;4.22;;;2.08;;
58294;SDS011;45705;55.592;37.460;2024-03-06T00:09:25;7.90;;;2.60;;
58294;SDS011;45705;55.592;37.460;2024-03-06T00:11:55;2.58;;;1.92;;
58294;SDS011;45705;55.592;37.460;2024-03-06T00:14:22;5.15;;;1.92;;
58294;SDS011;45705;55.592;37.460;2024-03-06T00:16:48;5.07;;;2.65;;
58294;SDS011;45705;55.592;37.460;2024-03-06T00:19:21;7.90;;;2.60;;
58294;SDS011;45705;55.592;37.460;2024-03-06T00:21:47;6.32;;;2.60;;
58294;SDS011;45705;55.592;37.460;2024-03-06T00:24:13;4.75;;;2.45;;
58294;SDS011;45705;55.592;37.460;2024-03-06T00:26:40;4.25;;;2.80;;
58294;SDS011;45705;55.592;37.460;2024-03-06T00:29:10;6.15;;;2.45;;
58294;SDS011;45705;55.592;37.460;2024-03-06T00:31:37;4.00;;;2.20;;
58294;SDS011;45705;55.592;37.460;2024-03-06T00:34:08;5.05;;;2.45;;
58294;SDS011;45705;55.592;37.460;2024-03-06T00:36:34;3.75;;;1.88;;
58294;SDS011;45705;55.592;37.460;2024-03-06T00:39:00;3.00;;;2.00;;
58294;SDS011;45705;55.592;37.460;2024-03-06T00:41:26;2.92;;;2.08;;
58294;SDS011;45705;55.592;37.460;2024-03-06T00:43:52;8.50;;;2.60;;
58294;SDS011;45705;55.592;37.460;2024-03-06T00:46:18;7.15;;;2.50;;
58294;SDS011;45705;55.592;37.460;2024-03-06T00:48:44;4.82;;;2.50;;
58294;SDS011;45705;55.592;37.460;2024-03-06T00:51:10;7.90;;;2.72;;
58294;SDS011;45705;55.592;37.460;2024-03-06T00:53:35;5.43;;;3.10;;
58294;SDS011;45705;55.592;37.460;2024-03-06T00:56:02;7.47;;;3.97;;
58294;SDS011;45705;55.592;37.460;2024-03-06T00:58:28;7.05;;;4.53;;
58294;SDS011;45705;55.592;37.460;2024-03-06T01:00:54;12.55;;;6.97;;
58294;SDS011;45705;55.592;37.460;2024-03-06T01:03:20;9.88;;;6.15;;
58294;SDS011;45705;55.592;37.460;2024-03-06T01:05:46;10.48;;;5.63;;
58294;SDS011;45705;55.592;37.460;2024-03-06T01:08:12;8.85;;;4.70;;
58294;SDS011;45705;55.592;37.460;2024-03-06T01:10:38;12.75;;;4.32;;
58294;SDS011;45705;55.592;37.460;2024-03-06T01:13:03;6.45;;;3.45;;
58294;SDS011;45705;55.592;37.460;2024-03-06T01:18:04;5.53;;;3.42;;
58294;SDS011;45705;55.592;37.460;2024-03-06T01:20:30;7.32;;;3.72;;
58294;SDS011;45705;55.592;37.460;2024-03-06T01:22:55;5.97;;;3.30;;
58294;SDS011;45705;55.592;37.460;2024-03-06T01:25:21;6.93;;;3.60;;
58294;SDS011;45705;55.592;37.460;2024-03-06T01:27:47;4.97;;;3.40;;
58294;SDS011;45705;55.592;37.460;2024-03-06T01:30:14;12.88;;;4.47;;
58294;SDS011;45705;55.592;37.460;2024-03-06T01:32:40;6.32;;;3.58;;
58294;SDS011;45705;55.592;37.460;2024-03-06T01:35:06;8.43;;;3.85;;
58294;SDS011;45705;55.592;37.460;2024-03-06T01:37:32;7.47;;;3.15;;
58294;SDS011;45705;55.592;37.460;2024-03-06T01:39:58;5.95;;;3.67;;
58294;SDS011;45705;55.592;37.460;2024-03-06T01:42:24;8.10;;;3.45;;
58294;SDS011;45705;55.592;37.460;2024-03-06T01:44:50;7.60;;;3.80;;
58294;SDS011;45705;55.592;37.460;2024-03-06T01:47:16;6.63;;;3.65;;
58294;SDS011;45705;55.592;37.460;2024-03-06T01:49:42;6.78;;;4.30;;
58294;SDS011;45705;55.592;37.460;2024-03-06T01:52:09;10.77;;;3.85;;
58294;SDS011;45705;55.592;37.460;2024-03-06T01:54:38;12.38;;;4.30;;
58294;SDS011;45705;55.592;37.460;2024-03-06T01:57:05;7.35;;;4.28;;
58294;SDS011;45705;55.592;37.460;2024-03-06T01:59:33;6.97;;;3.95;;
58294;SDS011;45705;55.592;37.460;2024-03-06T02:01:59;11.70;;;5.18;;
58294;SDS011;45705;55.592;37.460;2024-03-06T02:04:27;7.63;;;4.85;;
58294;SDS011;45705;55.592;37.460;2024-03-06T02:06:53;10.60;;;5.47;;
58294;SDS011;45705;55.592;37.460;2024-03-06T02:09:19;17.17;;;5.18;;
58294;SDS011;45705;55.592;37.460;2024-03-06T02:11:45;6.35;;;4.75;;
58294;SDS011;45705;55.592;37.460;2024-03-06T02:14:11;10.10;;;5.40;;
58294;SDS011;45705;55.592;37.460;2024-03-06T02:16:38;11.05;;;5.75;;
58294;SDS011;45705;55.592;37.460;2024-03-06T02:19:42;13.15;;;5.28;;
58294;SDS011;45705;55.592;37.460;2024-03-06T02:22:10;10.52;;;5.68;;
58294;SDS011;45705;55.592;37.460;2024-03-06T02:24:37;12.73;;;4.43;;
58294;SDS011;45705;55.592;37.460;2024-03-06T02:27:08;12.82;;;5.55;;
58294;SDS011;45705;55.592;37.460;2024-03-06T02:29:34;12.00;;;6.60;;
58294;SDS011;45705;55.592;37.460;2024-03-06T02:32:01;13.60;;;6.95;;
58294;SDS011;45705;55.592;37.460;2024-03-06T02:34:28;13.77;;;7.30;;
58294;SDS011;45705;55.592;37.460;2024-03-06T02:36:56;18.23;;;8.57;;
58294;SDS011;45705;55.592;37.460;2024-03-06T02:39:22;13.98;;;7.55;;
58294;SDS011;45705;55.592;37.460;2024-03-06T02:41:48;13.65;;;7.75;;
58294;SDS011;45705;55.592;37.460;2024-03-06T02:44:14;12.10;;;7.05;;
58294;SDS011;45705;55.592;37.460;2024-03-06T02:46:42;14.20;;;7.43;;
58294;SDS011;45705;55.592;37.460;2024-03-06T02:49:13;14.82;;;7.45;;
58294;SDS011;45705;55.592;37.460;2024-03-06T02:51:38;18.63;;;7.95;;
58294;SDS011;45705;55.592;37.460;2024-03-06T02:54:04;17.33;;;7.75;;
58294;SDS011;45705;55.592;37.460;2024-03-06T02:56:30;15.50;;;7.65;;
58294;SDS011;45705;55.592;37.460;2024-03-06T02:58:55;18.35;;;7.90;;
58294;SDS011;45705;55.592;37.460;2024-03-06T03:01:23;13.18;;;7.47;;
58294;SDS011;45705;55.592;37.460;2024-03-06T03:03:49;12.52;;;6.80;;
58294;SDS011;45705;55.592;37.460;2024-03-06T03:06:16;15.75;;;8.10;;
58294;SDS011;45705;55.592;37.460;2024-03-06T03:08:42;18.05;;;9.40;;
58294;SDS011;45705;55.592;37.460;2024-03-06T03:11:08;17.02;;;9.88;;
58294;SDS011;45705;55.592;37.460;2024-03-06T03:13:33;17.35;;;9.13;;
58294;SDS011;45705;55.592;37.460;2024-03-06T03:15:59;10.52;;;6.25;;
58294;SDS011;45705;55.592;37.460;2024-03-06T03:18:25;7.97;;;5.07;;
58294;SDS011;45705;55.592;37.460;2024-03-06T03:20:51;18.02;;;7.55;;
58294;SDS011;45705;55.592;37.460;2024-03-06T03:23:16;12.68;;;7.53;;
58294;SDS011;45705;55.592;37.460;2024-03-06T03:25:48;13.00;;;7.25;;
58294;SDS011;45705;55.592;37.460;2024-03-06T03:28:17;13.40;;;5.82;;
58294;SDS011;45705;55.592;37.460;2024-03-06T03:30:43;18.23;;;7.10;;
58294;SDS011;45705;55.592;37.460;2024-03-06T03:33:12;11.98;;;7.05;;
58294;SDS011;45705;55.592;37.460;2024-03-06T03:35:38;18.08;;;7.13;;
58294;SDS011;45705;55.592;37.460;2024-03-06T03:38:03;9.23;;;5.13;;
58294;SDS011;45705;55.592;37.460;2024-03-06T03:40:29;10.45;;;5.30;;
58294;SDS011;45705;55.592;37.460;2024-03-06T03:42:55;11.45;;;5.07;;
58294;SDS011;45705;55.592;37.460;2024-03-06T03:45:21;7.68;;;4.55;;
58294;SDS011;45705;55.592;37.460;2024-03-06T03:47:46;11.55;;;5.00;;
58294;SDS011;45705;55.592;37.460;2024-03-06T03:50:12;9.50;;;4.70;;
58294;SDS011;45705;55.592;37.460;2024-03-06T03:52:38;11.80;;;5.45;;
58294;SDS011;45705;55.592;37.460;2024-03-06T03:55:07;17.35;;;5.93;;
58294;SDS011;45705;55.592;37.460;2024-03-06T03:57:34;15.80;;;4.95;;
58294;SDS011;45705;55.592;37.460;2024-03-06T03:59:59;12.07;;;5.53;;
58294;SDS011;45705;55.592;37.460;2024-03-06T04:02:25;11.88;;;5.85;;
58294;SDS011;45705;55.592;37.460;2024-03-06T04:04:51;10.30;;;5.53;;
58294;SDS011;45705;55.592;37.460;2024-03-06T04:07:17;10.25;;;5.63;;
58294;SDS011;45705;55.592;37.460;2024-03-06T04:09:44;11.55;;;5.85;;
58294;SDS011;45705;55.592;37.460;2024-03-06T04:12:10;14.52;;;5.85;;
58294;SDS011;45705;55.592;37.460;2024-03-06T04:14:35;11.27;;;6.25;;
58294;SDS011;45705;55.592;37.460;2024-03-06T04:17:01;8.30;;;5.70;;
58294;SDS011;45705;55.592;37.460;2024-03-06T04:19:29;14.88;;;6.45;;
58294;SDS011;45705;55.592;37.460;2024-03-06T04:21:55;10.80;;;5.20;;
58294;SDS011;45705;55.592;37.460;2024-03-06T04:24:20;10.75;;;5.63;;
58294;SDS011;45705;55.592;37.460;2024-03-06T04:26:46;8.75;;;5.07;;
58294;SDS011;45705;55.592;37.460;2024-03-06T04:29:12;14.65;;;6.03;;
58294;SDS011;45705;55.592;37.460;2024-03-06T04:31:38;8.23;;;4.30;;
58294;SDS011;45705;55.592;37.460;2024-03-06T04:34:05;13.65;;;6.30;;
58294;SDS011;45705;55.592;37.460;2024-03-06T04:36:30;12.27;;;5.78;;
58294;SDS011;45705;55.592;37.460;2024-03-06T04:38:56;14.13;;;5.85;;
58294;SDS011;45705;55.592;37.460;2024-03-06T04:41:22;10.45;;;5.60;;
58294;SDS011;45705;55.592;37.460;2024-03-06T04:43:49;9.50;;;5.65;;
58294;SDS011;45705;55.592;37.460;2024-03-06T04:46:16;10.38;;;5.68;;
58294;SDS011;45705;55.592;37.460;2024-03-06T04:48:42;20.63;;;5.97;;
58294;SDS011;45705;55.592;37.460;2024-03-06T04:51:08;17.33;;;8.55;;
58294;SDS011;45705;55.592;37.460;2024-03-06T04:53:35;14.43;;;6.82;;
58294;SDS011;45705;55.592;37.460;2024-03-06T04:56:01;12.25;;;6.63;;
58294;SDS011;45705;55.592;37.460;2024-03-06T04:58:27;12.38;;;7.03;;
58294;SDS011;45705;55.592;37.460;2024-03-06T05:00:53;12.82;;;8.00;;
58294;SDS011;45705;55.592;37.460;2024-03-06T05:03:18;14.77;;;7.45;;
58294;SDS011;45705;55.592;37.460;2024-03-06T05:05:44;18.27;;;9.07;;
58294;SDS011;45705;55.592;37.460;2024-03-06T05:08:10;18.88;;;10.82;;
58294;SDS011;45705;55.592;37.460;2024-03-06T05:10:36;28.02;;;11.38;;
58294;SDS011;45705;55.592;37.460;2024-03-06T05:13:02;24.38;;;11.93;;
58294;SDS011;45705;55.592;37.460;2024-03-06T05:15:28;21.58;;;12.70;;
58294;SDS011;45705;55.592;37.460;2024-03-06T05:17:54;24.10;;;11.40;;
58294;SDS011;45705;55.592;37.460;2024-03-06T05:20:21;23.98;;;11.88;;
58294;SDS011;45705;55.592;37.460;2024-03-06T05:22:48;21.30;;;11.35;;
58294;SDS011;45705;55.592;37.460;2024-03-06T05:28:04;18.77;;;8.48;;
58294;SDS011;45705;55.592;37.460;2024-03-06T05:30:31;13.68;;;7.53;;
58294;SDS011;45705;55.592;37.460;2024-03-06T05:32:57;14.48;;;7.90;;
58294;SDS011;45705;55.592;37.460;2024-03-06T05:35:22;16.75;;;8.35;;
58294;SDS011;45705;55.592;37.460;2024-03-06T05:37:48;14.35;;;6.63;;
58294;SDS011;45705;55.592;37.460;2024-03-06T05:40:14;13.18;;;7.88;;
58294;SDS011;45705;55.592;37.460;2024-03-06T05:42:40;16.58;;;9.07;;
58294;SDS011;45705;55.592;37.460;2024-03-06T05:45:06;18.25;;;10.10;;
58294;SDS011;45705;55.592;37.460;2024-03-06T05:47:36;19.00;;;9.32;;
58294;SDS011;45705;55.592;37.460;2024-03-06T05:50:06;18.50;;;7.88;;
58294;SDS011;45705;55.592;37.460;2024-03-06T05:52:36;15.98;;;7.45;;
58294;SDS011;45705;55.592;37.460;2024-03-06T05:55:02;14.32;;;6.80;;
58294;SDS011;45705;55.592;37.460;2024-03-06T05:59:57;7.90;;;4.78;;
58294;SDS011;45705;55.592;37.460;2024-03-06T06:02:23;9.88;;;5.68;;
58294;SDS011;45705;55.592;37.460;2024-03-06T06:04:49;16.23;;;5.55;;
58294;SDS011;45705;55.592;37.460;2024-03-06T06:07:15;11.05;;;5.35;;
58294;SDS011;45705;55.592;37.460;2024-03-06T06:09:41;11.38;;;5.22;;
58294;SDS011;45705;55.592;37.460;2024-03-06T06:12:08;12.45;;;4.65;;
58294;SDS011;45705;55.592;37.460;2024-03-06T06:14:34;11.40;;;6.35;;
58294;SDS011;45705;55.592;37.460;2024-03-06T06:17:00;14.05;;;6.47;;
58294;SDS011;45705;55.592;37.460;2024-03-06T06:19:26;11.70;;;6.78;;
58294;SDS011;45705;55.592;37.460;2024-03-06T06:21:53;11.85;;;5.28;;
58294;SDS011;45705;55.592;37.460;2024-03-06T06:24:20;8.50;;;4.60;;
58294;SDS011;45705;55.592;37.460;2024-03-06T06:26:45;10.00;;;4.82;;
58294;SDS011;45705;55.592;37.460;2024-03-06T06:29:11;14.95;;;5.45;;
58294;SDS011;45705;55.592;37.460;2024-03-06T06:31:37;9.50;;;3.83;;
58294;SDS011;45705;55.592;37.460;2024-03-06T06:34:03;9.07;;;5.13;;
58294;SDS011;45705;55.592;37.460;2024-03-06T06:36:30;11.15;;;4.63;;
58294;SDS011;45705;55.592;37.460;2024-03-06T06:38:55;13.20;;;4.22;;
58294;SDS011;45705;55.592;37.460;2024-03-06T06:41:21;8.23;;;4.07;;
58294;SDS011;45705;55.592;37.460;2024-03-06T06:43:49;12.90;;;4.40;;
58294;SDS011;45705;55.592;37.460;2024-03-06T06:46:18;11.77;;;5.82;;
58294;SDS011;45705;55.592;37.460;2024-03-06T06:48:43;13.85;;;6.18;;
58294;SDS011;45705;55.592;37.460;2024-03-06T06:51:09;21.38;;;6.40;;
58294;SDS011;45705;55.592;37.460;2024-03-06T06:53:35;12.90;;;5.55;;
58294;SDS011;45705;55.592;37.460;2024-03-06T06:56:01;13.52;;;5.07;;
58294;SDS011;45705;55.592;37.460;2024-03-06T06:58:27;15.10;;;5.68;;
58294;SDS011;45705;55.592;37.460;2024-03-06T07:00:53;11.15;;;5.30;;
58294;SDS011;45705;55.592;37.460;2024-03-06T07:03:19;15.02;;;4.28;;
58294;SDS011;45705;55.592;37.460;2024-03-06T07:05:47;12.13;;;4.20;;
58294;SDS011;45705;55.592;37.460;2024-03-06T07:08:12;15.85;;;5.43;;
58294;SDS011;45705;55.592;37.460;2024-03-06T07:10:38;12.15;;;4.47;;
58294;SDS011;45705;55.592;37.460;2024-03-06T07:13:04;8.75;;;4.38;;
58294;SDS011;45705;55.592;37.460;2024-03-06T07:15:31;15.30;;;4.65;;
58294;SDS011;45705;55.592;37.460;2024-03-06T07:17:58;11.65;;;4.47;;
58294;SDS011;45705;55.592;37.460;2024-03-06T07:20:23;14.40;;;4.05;;
58294;SDS011;45705;55.592;37.460;2024-03-06T07:22:49;23.77;;;10.32;;
58294;SDS011;45705;55.592;37.460;2024-03-06T07:25:16;11.95;;;4.63;;
58294;SDS011;45705;55.592;37.460;2024-03-06T07:27:43;8.65;;;4.78;;
58294;SDS011;45705;55.592;37.460;2024-03-06T07:32:43;10.80;;;4.22;;
58294;SDS011;45705;55.592;37.460;2024-03-06T07:35:08;13.00;;;4.60;;
58294;SDS011;45705;55.592;37.460;2024-03-06T07:37:35;8.70;;;4.40;;
58294;SDS011;45705;55.592;37.460;2024-03-06T07:40:01;9.10;;;4.30;;
58294;SDS011;45705;55.592;37.460;2024-03-06T07:42:27;12.10;;;4.20;;
58294;SDS011;45705;55.592;37.460;2024-03-06T07:44:53;10.32;;;4.90;;
58294;SDS011;45705;55.592;37.460;2024-03-06T07:47:18;11.52;;;4.15;;
58294;SDS011;45705;55.592;37.460;2024-03-06T07:49:45;13.30;;;4.60;;
58294;SDS011;45705;55.592;37.460;2024-03-06T07:52:11;18.27;;;4.40;;
58294;SDS011;45705;55.592;37.460;2024-03-06T07:54:37;8.02;;;3.85;;
58294;SDS011;45705;55.592;37.460;2024-03-06T07:57:05;11.15;;;4.32;;
58294;SDS011;45705;55.592;37.460;2024-03-06T07:59:31;17.58;;;4.30;;
58294;SDS011;45705;55.592;37.460;2024-03-06T08:01:56;16.73;;;4.07;;
58294;SDS011;45705;55.592;37.460;2024-03-06T08:04:22;11.90;;;4.28;;
58294;SDS011;45705;55.592;37.460;2024-03-06T08:06:49;17.35;;;4.85;;
58294;SDS011;45705;55.592;37.460;2024-03-06T08:09:14;19.30;;;4.18;;
58294;SDS011;45705;55.592;37.460;2024-03-06T08:11:42;13.95;;;4.53;;
58294;SDS011;45705;55.592;37.460;2024-03-06T08:14:08;13.43;;;3.75;;
58294;SDS011;45705;55.592;37.460;2024-03-06T08:16:33;23.55;;;4.63;;
58294;SDS011;45705;55.592;37.460;2024-03-06T08:19:00;16.85;;;4.78;;
58294;SDS011;45705;55.592;37.460;2024-03-06T08:21:26;13.45;;;4.18;;
58294;SDS011;45705;55.592;37.460;2024-03-06T08:23:52;15.80;;;3.75;;
58294;SDS011;45705;55.592;37.460;2024-03-06T08:26:18;16.77;;;4.18;;
58294;SDS011;45705;55.592;37.460;2024-03-06T08:28:43;18.83;;;4.53;;
58294;SDS011;45705;55.592;37.460;2024-03-06T08:31:09;11.98;;;4.72;;
58294;SDS011;45705;55.592;37.460;2024-03-06T08:33:35;12.38;;;3.90;;
58294;SDS011;45705;55.592;37.460;2024-03-06T08:36:01;16.35;;;4.15;;
58294;SDS011;45705;55.592;37.460;2024-03-06T08:38:27;15.88;;;4.10;;
58294;SDS011;45705;55.592;37.460;2024-03-06T08:40:53;16.27;;;4.57;;
58294;SDS011;45705;55.592;37.460;2024-03-06T08:43:19;13.77;;;3.90;;
58294;SDS011;45705;55.592;37.460;2024-03-06T08:45:45;19.73;;;4.53;;
58294;SDS011;45705;55.592;37.460;2024-03-06T08:48:11;16.77;;;6.03;;
58294;SDS011;45705;55.592;37.460;2024-03-06T08:50:37;10.80;;;3.85;;
58294;SDS011;45705;55.592;37.460;2024-03-06T08:53:03;16.40;;;3.72;;
58294;SDS011;45705;55.592;37.460;2024-03-06T08:55:29;8.15;;;3.50;;
58294;SDS011;45705;55.592;37.460;2024-03-06T08:57:55;15.05;;;3.67;;
58294;SDS011;45705;55.592;37.460;2024-03-06T09:00:21;13.30;;;4.47;;
58294;SDS011;45705;55.592;37.460;2024-03-06T09:02:47;15.00;;;3.25;;
58294;SDS011;45705;55.592;37.460;2024-03-06T09:05:13;11.32;;;3.58;;
58294;SDS011;45705;55.592;37.460;2024-03-06T09:07:39;16.77;;;4.03;;
58294;SDS011;45705;55.592;37.460;2024-03-06T09:10:09;15.40;;;4.15;;
58294;SDS011;45705;55.592;37.460;2024-03-06T09:12:35;10.90;;;3.83;;
58294;SDS011;45705;55.592;37.460;2024-03-06T09:15:02;16.65;;;3.30;;
58294;SDS011;45705;55.592;37.460;2024-03-06T09:17:31;10.95;;;3.20;;
58294;SDS011;45705;55.592;37.460;2024-03-06T09:19:56;11.48;;;3.67;;
58294;SDS011;45705;55.592;37.460;2024-03-06T09:22:22;12.85;;;3.22;;
58294;SDS011;45705;55.592;37.460;2024-03-06T09:24:48;11.90;;;3.85;;
58294;SDS011;45705;55.592;37.460;2024-03-06T09:27:14;13.60;;;4.32;;
58294;SDS011;45705;55.592;37.460;2024-03-06T09:29:41;17.20;;;3.22;;
58294;SDS011;45705;55.592;37.460;2024-03-06T09:32:07;9.98;;;3.50;;
58294;SDS011;45705;55.592;37.460;2024-03-06T09:34:33;7.28;;;3.05;;
58294;SDS011;45705;55.592;37.460;2024-03-06T09:36:59;13.05;;;3.35;;
58294;SDS011;45705;55.592;37.460;2024-03-06T09:39:26;11.60;;;2.92;;
58294;SDS011;45705;55.592;37.460;2024-03-06T09:41:52;17.30;;;4.00;;
58294;SDS011;45705;55.592;37.460;2024-03-06T09:44:19;12.98;;;3.72;;
58294;SDS011;45705;55.592;37.460;2024-03-06T09:46:47;8.75;;;3.80;;
58294;SDS011;45705;55.592;37.460;2024-03-06T09:49:14;9.88;;;3.55;;
58294;SDS011;45705;55.592;37.460;2024-03-06T09:51:42;12.45;;;3.60;;
58294;SDS011;45705;55.592;37.460;2024-03-06T09:54:13;14.05;;;3.42;;
58294;SDS011;45705;55.592;37.460;2024-03-06T09:56:46;11.32;;;3.03;;
58294;SDS011;45705;55.592;37.460;2024-03-06T09:59:13;9.10;;;3.17;;
58294;SDS011;45705;55.592;37.460;2024-03-06T10:04:22;8.60;;;2.65;;
58294;SDS011;45705;55.592;37.460;2024-03-06T10:06:50;6.85;;;2.72;;
58294;SDS011;45705;55.592;37.460;2024-03-06T10:09:20;7.82;;;3.20;;
58294;SDS011;45705;55.592;37.460;2024-03-06T10:11:46;13.15;;;3.00;;
58294;SDS011;45705;55.592;37.460;2024-03-06T10:14:13;6.85;;;2.80;;
58294;SDS011;45705;55.592;37.460;2024-03-06T10:16:58;11.15;;;3.05;;
58294;SDS011;45705;55.592;37.460;2024-03-06T10:19:25;10.65;;;4.00;;
58294;SDS011;45705;55.592;37.460;2024-03-06T10:21:56;10.38;;;3.53;;
58294;SDS011;45705;55.592;37.460;2024-03-06T10:24:29;7.28;;;2.95;;
58294;SDS011;45705;55.592;37.460;2024-03-06T10:26:55;9.82;;;3.22;;
58294;SDS011;45705;55.592;37.460;2024-03-06T10:29:24;8.00;;;3.53;;
58294;SDS011;45705;55.592;37.460;2024-03-06T10:31:51;12.95;;;3.92;;
58294;SDS011;45705;55.592;37.460;2024-03-06T10:34:20;8.57;;;2.72;;
58294;SDS011;45705;55.592;37.460;2024-03-06T10:39:23;7.00;;;2.85;;
58294;SDS011;45705;55.592;37.460;2024-03-06T10:41:54;5.00;;;2.78;;
58294;SDS011;45705;55.592;37.460;2024-03-06T10:44:21;5.50;;;2.30;;
58294;SDS011;45705;55.592;37.460;2024-03-06T10:47:01;25.08;;;9.63;;
58294;SDS011;45705;55.592;37.460;2024-03-06T10:49:29;7.80;;;2.75;;
58294;SDS011;45705;55.592;37.460;2024-03-06T10:51:59;8.45;;;3.05;;
58294;SDS011;45705;55.592;37.460;2024-03-06T10:54:26;8.82;;;3.55;;
58294;SDS011;45705;55.592;37.460;2024-03-06T10:56:54;11.15;;;3.30;;
58294;SDS011;45705;55.592;37.460;2024-03-06T10:59:20;9.52;;;3.53;;
58294;SDS011;45705;55.592;37.460;2024-03-06T11:01:48;12.73;;;3.35;;
58294;SDS011;45705;55.592;37.460;2024-03-06T11:04:15;7.78;;;3.00;;
58294;SDS011;45705;55.592;37.460;2024-03-06T11:06:42;8.48;;;3.13;;
58294;SDS011;45705;55.592;37.460;2024-03-06T11:09:08;16.40;;;3.40;;
58294;SDS011;45705;55.592;37.460;2024-03-06T11:11:47;7.90;;;2.60;;
58294;SDS011;45705;55.592;37.460;2024-03-06T11:14:23;14.20;;;3.50;;
58294;SDS011;45705;55.592;37.460;2024-03-06T11:21:55;11.30;;;3.15;;
58294;SDS011;45705;55.592;37.460;2024-03-06T11:24:22;11.70;;;3.30;;
58294;SDS011;45705;55.592;37.460;2024-03-06T11:26:53;9.40;;;3.20;;
58294;SDS011;45705;55.592;37.460;2024-03-06T11:29:22;11.85;;;2.83;;
58294;SDS011;45705;55.592;37.460;2024-03-06T11:32:05;3.80;;;2.47;;
58294;SDS011;45705;55.592;37.460;2024-03-06T11:34:36;7.63;;;2.70;;
58294;SDS011;45705;55.592;37.460;2024-03-06T11:37:03;9.13;;;3.22;;
58294;SDS011;45705;55.592;37.460;2024-03-06T11:39:37;8.90;;;3.25;;
58294;SDS011;45705;55.592;37.460;2024-03-06T11:42:04;10.82;;;3.40;;
58294;SDS011;45705;55.592;37.460;2024-03-06T11:44:34;7.03;;;2.92;;
58294;SDS011;45705;55.592;37.460;2024-03-06T11:47:02;15.70;;;3.97;;
58294;SDS011;45705;55.592;37.460;2024-03-06T11:49:30;8.90;;;3.40;;
58294;SDS011;45705;55.592;37.460;2024-03-06T11:52:03;10.60;;;4.07;;
58294;SDS011;45705;55.592;37.460;2024-03-06T11:54:34;13.27;;;4.10;;
58294;SDS011;45705;55.592;37.460;2024-03-06T11:57:01;14.05;;;4.47;;
58294;SDS011;45705;55.592;37.460;2024-03-06T11:59:29;14.90;;;4.33;;
58294;SDS011;45705;55.592;37.460;2024-03-06T12:02:00;14.38;;;3.67;;
58294;SDS011;45705;55.592;37.460;2024-03-06T12:04:29;16.33;;;8.70;;
58294;SDS011;45705;55.592;37.460;2024-03-06T12:06:56;20.17;;;5.07;;
58294;SDS011;45705;55.592;37.460;2024-03-06T12:09:26;7.60;;;3.97;;
58294;SDS011;45705;55.592;37.460;2024-03-06T12:11:52;9.38;;;4.32;;
58294;SDS011;45705;55.592;37.460;2024-03-06T12:14:19;14.10;;;4.80;;
58294;SDS011;45705;55.592;37.460;2024-03-06T12:16:58;9.33;;;4.40;;
58294;SDS011;45705;55.592;37.460;2024-03-06T12:19:32;11.88;;;4.13;;
58294;SDS011;45705;55.592;37.460;2024-03-06T12:21:59;10.02;;;3.97;;
58294;SDS011;45705;55.592;37.460;2024-03-06T12:24:26;11.80;;;3.88;;
58294;SDS011;45705;55.592;37.460;2024-03-06T12:27:02;13.70;;;4.20;;
58294;SDS011;45705;55.592;37.460;2024-03-06T12:29:29;12.48;;;4.00;;
58294;SDS011;45705;55.592;37.460;2024-03-06T12:31:58;14.80;;;4.68;;
58294;SDS011;45705;55.592;37.460;2024-03-06T12:34:24;10.02;;;4.63;;
58294;SDS011;45705;55.592;37.460;2024-03-06T12:36:50;13.82;;;4.10;;
58294;SDS011;45705;55.592;37.460;2024-03-06T12:39:16;8.40;;;4.13;;
58294;SDS011;45705;55.592;37.460;2024-03-06T12:41:49;10.98;;;3.90;;
58294;SDS011;45705;55.592;37.460;2024-03-06T12:44:16;14.55;;;3.83;;
58294;SDS011;45705;55.592;37.460;2024-03-06T12:46:42;11.65;;;4.10;;
58294;SDS011;45705;55.592;37.460;2024-03-06T12:49:08;13.68;;;4.00;;
58294;SDS011;45705;55.592;37.460;2024-03-06T12:51:33;14.40;;;4.20;;
58294;SDS011;45705;55.592;37.460;2024-03-06T12:53:59;7.43;;;3.90;;
58294;SDS011;45705;55.592;37.460;2024-03-06T12:56:28;9.88;;;4.00;;
58294;SDS011;45705;55.592;37.460;2024-03-06T12:58:54;12.77;;;3.75;;
58294;SDS011;45705;55.592;37.460;2024-03-06T13:01:20;10.63;;;4.22;;
58294;SDS011;45705;55.592;37.460;2024-03-06T13:03:46;15.02;;;4.53;;
58294;SDS011;45705;55.592;37.460;2024-03-06T13:06:15;14.88;;;4.63;;
58294;SDS011;45705;55.592;37.460;2024-03-06T13:08:40;10.63;;;3.65;;
58294;SDS011;45705;55.592;37.460;2024-03-06T13:11:06;13.27;;;3.25;;
58294;SDS011;45705;55.592;37.460;2024-03-06T13:13:35;10.55;;;3.55;;
58294;SDS011;45705;55.592;37.460;2024-03-06T13:16:01;12.32;;;3.70;;
58294;SDS011;45705;55.592;37.460;2024-03-06T13:18:27;9.98;;;4.18;;
58294;SDS011;45705;55.592;37.460;2024-03-06T13:20:52;11.88;;;5.10;;
58294;SDS011;45705;55.592;37.460;2024-03-06T13:23:19;8.68;;;3.90;;
58294;SDS011;45705;55.592;37.460;2024-03-06T13:25:45;9.70;;;4.18;;
58294;SDS011;45705;55.592;37.460;2024-03-06T13:28:11;15.05;;;4.50;;
58294;SDS011;45705;55.592;37.460;2024-03-06T13:30:38;16.67;;;4.68;;
58294;SDS011;45705;55.592;37.460;2024-03-06T13:33:04;15.88;;;4.68;;
58294;SDS011;45705;55.592;37.460;2024-03-06T13:35:31;15.50;;;5.22;;
58294;SDS011;45705;55.592;37.460;2024-03-06T13:37:57;12.75;;;4.32;;
58294;SDS011;45705;55.592;37.460;2024-03-06T13:40:23;19.70;;;4.82;;
58294;SDS011;45705;55.592;37.460;2024-03-06T13:42:51;13.60;;;4.72;;
58294;SDS011;45705;55.592;37.460;2024-03-06T13:45:17;16.33;;;5.10;;
58294;SDS011;45705;55.592;37.460;2024-03-06T13:47:43;14.02;;;5.43;;
58294;SDS011;45705;55.592;37.460;2024-03-06T13:50:10;14.95;;;4.95;;
58294;SDS011;45705;55.592;37.460;2024-03-06T13:52:38;14.40;;;4.75;;
58294;SDS011;45705;55.592;37.460;2024-03-06T13:55:04;11.23;;;4.18;;
58294;SDS011;45705;55.592;37.460;2024-03-06T13:57:32;14.93;;;4.35;;
58294;SDS011;45705;55.592;37.460;2024-03-06T14:00:04;13.52;;;4.38;;
58294;SDS011;45705;55.592;37.460;2024-03-06T14:02:44;23.52;;;5.18;;
58294;SDS011;45705;55.592;37.460;2024-03-06T14:05:13;17.27;;;5.20;;
58294;SDS011;45705;55.592;37.460;2024-03-06T14:07:40;14.65;;;4.15;;
58294;SDS011;45705;55.592;37.460;2024-03-06T14:10:06;14.43;;;4.43;;
58294;SDS011;45705;55.592;37.460;2024-03-06T14:12:36;9.05;;;3.90;;
58294;SDS011;45705;55.592;37.460;2024-03-06T14:15:05;9.50;;;4.53;;
58294;SDS011;45705;55.592;37.460;2024-03-06T14:17:34;11.43;;;3.75;;
58294;SDS011;45705;55.592;37.460;2024-03-06T14:20:00;10.77;;;3.95;;
58294;SDS011;45705;55.592;37.460;2024-03-06T14:22:26;9.40;;;4.03;;
58294;SDS011;45705;55.592;37.460;2024-03-06T14:24:52;14.23;;;3.40;;
58294;SDS011;45705;55.592;37.460;2024-03-06T14:27:17;7.80;;;2.80;;
58294;SDS011;45705;55.592;37.460;2024-03-06T14:29:43;7.05;;;2.90;;
58294;SDS011;45705;55.592;37.460;2024-03-06T14:32:10;14.25;;;3.45;;
58294;SDS011;45705;55.592;37.460;2024-03-06T14:34:36;10.85;;;4.13;;
58294;SDS011;45705;55.592;37.460;2024-03-06T14:37:01;13.95;;;4.22;;
58294;SDS011;45705;55.592;37.460;2024-03-06T14:39:27;10.65;;;4.15;;
58294;SDS011;45705;55.592;37.460;2024-03-06T14:41:53;7.63;;;2.92;;
58294;SDS011;45705;55.592;37.460;2024-03-06T14:44:19;14.55;;;3.42;;
58294;SDS011;45705;55.592;37.460;2024-03-06T14:46:46;9.40;;;2.92;;